createdAt,value
2023-02-14T00:01:55.200Z,4.70
2023-02-14T00:04:22.966Z,4.95
2023-02-14T00:06:50.845Z,5.53
2023-02-14T00:09:20.350Z,5.30
2023-02-14T00:11:49.618Z,4.90
2023-02-14T00:14:35.233Z,5.67
2023-02-14T00:17:03.209Z,5.10
2023-02-14T00:19:31.860Z,5.60
2023-02-14T00:22:02.316Z,5.30
2023-02-14T00:24:30.392Z,4.73
2023-02-14T00:26:59.620Z,5.43
2023-02-14T00:29:29.846Z,5.53
2023-02-14T00:32:01.476Z,5.47
2023-02-14T00:34:29.777Z,5.30
2023-02-14T00:37:00.547Z,5.50
2023-02-14T00:39:28.224Z,5.63
2023-02-14T00:41:56.009Z,5.77
2023-02-14T00:44:25.384Z,6.30
2023-02-14T00:46:53.132Z,5.60
2023-02-14T00:49:20.851Z,6.30
2023-02-14T00:51:48.647Z,6.23
2023-02-14T00:54:16.387Z,5.53
2023-02-14T00:56:44.114Z,5.83
2023-02-14T00:59:11.942Z,6.53
2023-02-14T01:01:41.311Z,6.10
2023-02-14T01:04:10.595Z,6.00
2023-02-14T01:06:39.565Z,6.03
2023-02-14T01:09:07.448Z,5.90
2023-02-14T01:11:35.484Z,6.10
2023-02-14T01:14:03.342Z,6.30
2023-02-14T01:16:31.750Z,6.23
2023-02-14T01:19:01.830Z,5.40
2023-02-14T01:21:31.670Z,6.20
2023-02-14T01:24:02.126Z,5.70
2023-02-14T01:26:31.126Z,5.40
2023-02-14T01:29:02.541Z,6.60
2023-02-14T01:31:33.187Z,6.10
2023-02-14T01:34:03.129Z,5.63
2023-02-14T01:36:32.671Z,5.90
2023-02-14T01:39:03.671Z,6.10
2023-02-14T01:41:33.566Z,5.67
2023-02-14T01:44:03.144Z,5.93
2023-02-14T01:46:32.598Z,5.77
2023-02-14T01:49:04.928Z,6.03
2023-02-14T01:51:35.726Z,5.47
2023-02-14T01:54:05.035Z,6.07
2023-02-14T01:56:36.487Z,5.93
2023-02-14T01:59:09.256Z,5.70
2023-02-14T02:01:37.048Z,5.60
2023-02-14T02:04:11.058Z,5.80
2023-02-14T02:06:42.843Z,5.73
2023-02-14T02:09:16.156Z,5.40
2023-02-14T02:11:44.576Z,5.47
2023-02-14T02:14:15.947Z,5.83
2023-02-14T02:17:15.639Z,6.10
2023-02-14T02:20:12.193Z,5.90
2023-02-14T02:23:11.965Z,6.30
2023-02-14T02:26:02.989Z,5.63
2023-02-14T02:28:55.888Z,7.13
2023-02-14T02:32:01.139Z,6.27
2023-02-14T02:35:21.843Z,6.03
2023-02-14T02:38:05.745Z,6.33
2023-02-14T02:40:48.702Z,6.47
2023-02-14T02:43:33.876Z,6.50
2023-02-14T02:46:22.840Z,6.50
2023-02-14T02:48:58.285Z,6.97
2023-02-14T02:51:52.410Z,6.23
2023-02-14T02:54:30.070Z,6.77
2023-02-14T02:56:59.681Z,6.47
2023-02-14T02:59:31.497Z,6.40
2023-02-14T03:02:06.318Z,6.40
2023-02-14T03:04:53.191Z,5.87
2023-02-14T03:07:36.734Z,6.17
2023-02-14T03:10:15.889Z,5.83
2023-02-14T03:13:29.593Z,6.73
2023-02-14T03:16:40.273Z,6.20
2023-02-14T03:19:32.088Z,6.70
2023-02-14T03:22:04.912Z,6.20
2023-02-14T03:24:47.148Z,6.53
2023-02-14T03:27:40.004Z,6.10
2023-02-14T03:30:15.985Z,7.03
2023-02-14T03:32:49.448Z,6.80
2023-02-14T03:35:23.790Z,7.03
2023-02-14T03:37:58.096Z,8.10
2023-02-14T03:40:32.438Z,8.50
2023-02-14T03:43:05.341Z,8.00
2023-02-14T03:45:36.886Z,9.10
2023-02-14T03:48:09.247Z,9.50
2023-02-14T03:50:39.931Z,9.83
2023-02-14T03:53:11.139Z,10.27
2023-02-14T03:55:45.723Z,10.47
2023-02-14T03:58:20.381Z,10.80
2023-02-14T04:00:51.643Z,10.93
2023-02-14T04:03:21.304Z,11.40
2023-02-14T04:05:52.390Z,11.70
2023-02-14T04:08:24.778Z,11.20
2023-02-14T04:10:55.284Z,11.77
2023-02-14T04:13:23.406Z,12.73
2023-02-14T04:15:51.123Z,13.00
2023-02-14T04:18:36.280Z,12.43
2023-02-14T04:21:04.023Z,11.60
2023-02-14T04:23:31.955Z,12.53
2023-02-14T04:26:01.052Z,12.40
2023-02-14T04:28:28.942Z,12.57
2023-02-14T04:30:56.817Z,11.87
2023-02-14T04:33:24.573Z,11.40
2023-02-14T04:35:52.353Z,10.80
2023-02-14T04:38:20.092Z,11.73
2023-02-14T04:40:49.976Z,12.23
2023-02-14T04:43:19.418Z,11.83
2023-02-14T04:45:48.465Z,11.83
2023-02-14T04:48:16.394Z,11.97
2023-02-14T04:50:44.214Z,11.37
2023-02-14T04:53:11.988Z,11.43
2023-02-14T04:55:39.780Z,11.83
2023-02-14T04:58:07.644Z,11.83
2023-02-14T05:00:36.866Z,11.17
2023-02-14T05:03:04.811Z,11.53
2023-02-14T05:05:32.532Z,11.10
2023-02-14T05:08:00.221Z,12.70
2023-02-14T05:10:29.150Z,12.87
2023-02-14T05:12:56.945Z,12.80
2023-02-14T05:15:24.655Z,12.97
2023-02-14T05:17:53.799Z,13.93
2023-02-14T05:20:21.817Z,13.77
2023-02-14T05:22:49.553Z,14.03
2023-02-14T05:25:19.631Z,14.40
2023-02-14T05:27:47.345Z,15.13
2023-02-14T05:30:30.776Z,14.57
2023-02-14T05:33:00.119Z,14.83
2023-02-14T05:35:28.268Z,15.37
2023-02-14T05:38:18.328Z,15.70
2023-02-14T05:40:46.793Z,15.03
2023-02-14T05:43:20.730Z,15.30
2023-02-14T05:45:48.970Z,14.97
2023-02-14T05:48:19.083Z,15.37
2023-02-14T05:50:46.917Z,13.27
2023-02-14T05:53:16.820Z,14.57
2023-02-14T05:55:44.567Z,13.40
2023-02-14T05:58:12.639Z,13.57
2023-02-14T06:00:41.389Z,14.60
2023-02-14T06:03:09.477Z,13.67
2023-02-14T06:05:38.611Z,14.43
2023-02-14T06:08:06.391Z,15.43
2023-02-14T06:10:34.504Z,15.47
2023-02-14T06:13:02.216Z,16.77
2023-02-14T06:15:29.927Z,15.77
2023-02-14T06:17:58.690Z,15.00
2023-02-14T06:20:27.503Z,15.77
2023-02-14T06:22:57.033Z,16.43
2023-02-14T06:25:25.605Z,16.57
2023-02-14T06:27:57.115Z,16.53
2023-02-14T06:30:25.918Z,17.73
2023-02-14T06:32:53.807Z,17.00
2023-02-14T06:35:21.498Z,16.47
2023-02-14T06:37:49.430Z,17.70
2023-02-14T06:40:19.655Z,17.07
2023-02-14T06:42:47.575Z,17.67
2023-02-14T06:45:15.264Z,18.17
2023-02-14T06:47:43.112Z,17.97
2023-02-14T06:50:12.495Z,17.43
2023-02-14T06:52:42.108Z,17.20
2023-02-14T06:55:11.723Z,17.80
2023-02-14T06:57:41.201Z,16.80
2023-02-14T07:00:10.284Z,15.40
2023-02-14T07:02:38.141Z,16.10
2023-02-14T07:05:06.384Z,15.17
2023-02-14T07:07:34.075Z,16.87
2023-02-14T07:10:01.875Z,15.47
2023-02-14T07:12:29.625Z,14.53
2023-02-14T07:14:58.715Z,15.77
2023-02-14T07:17:26.451Z,14.90
2023-02-14T07:19:54.244Z,15.37
2023-02-14T07:22:22.003Z,17.20
2023-02-14T07:24:49.792Z,17.00
2023-02-14T07:27:17.567Z,15.00
2023-02-14T07:29:45.301Z,16.13
2023-02-14T07:32:14.464Z,15.07
2023-02-14T07:34:42.277Z,14.13
2023-02-14T07:37:10.089Z,15.13
2023-02-14T07:39:37.847Z,13.50
2023-02-14T07:42:05.665Z,14.33
2023-02-14T07:44:33.500Z,14.10
2023-02-14T07:47:01.313Z,13.80
2023-02-14T07:49:30.390Z,14.23
2023-02-14T07:51:58.203Z,13.87
2023-02-14T07:54:26.303Z,14.00
2023-02-14T07:56:54.045Z,13.27
2023-02-14T07:59:22.709Z,14.10
2023-02-14T08:01:51.191Z,13.90
2023-02-14T08:04:18.941Z,14.53
2023-02-14T08:06:48.230Z,13.77
2023-02-14T08:09:24.524Z,13.40
2023-02-14T08:12:10.191Z,14.03
2023-02-14T08:14:38.255Z,15.27
2023-02-14T08:17:07.282Z,14.27
2023-02-14T08:19:35.206Z,14.70
2023-02-14T08:22:04.985Z,14.47
2023-02-14T08:24:33.268Z,15.07
2023-02-14T08:27:01.269Z,13.73
2023-02-14T08:29:29.077Z,14.57
2023-02-14T08:32:00.329Z,14.47
2023-02-14T08:34:28.200Z,14.30
2023-02-14T08:36:56.257Z,16.20
2023-02-14T08:39:25.608Z,15.43
2023-02-14T08:41:53.385Z,14.53
2023-02-14T08:44:21.757Z,16.17
2023-02-14T08:46:49.570Z,15.07
2023-02-14T08:49:17.356Z,15.33
2023-02-14T08:51:45.050Z,16.30
2023-02-14T08:54:12.747Z,14.60
2023-02-14T08:56:42.355Z,15.60
2023-02-14T08:59:10.119Z,15.33
2023-02-14T09:01:37.902Z,15.23
2023-02-14T09:04:05.762Z,15.90
2023-02-14T09:06:33.616Z,16.20
2023-02-14T09:09:02.665Z,15.50
2023-02-14T09:11:30.599Z,17.10
2023-02-14T09:13:59.694Z,15.47
2023-02-14T09:16:27.757Z,15.17
2023-02-14T09:18:56.587Z,18.70
2023-02-14T09:21:26.352Z,17.87
2023-02-14T09:23:54.869Z,19.40
2023-02-14T09:26:22.755Z,20.13
2023-02-14T09:28:50.805Z,18.13
2023-02-14T09:31:22.235Z,18.93
2023-02-14T09:34:08.836Z,20.97
2023-02-14T09:36:36.761Z,18.13
2023-02-14T09:39:05.088Z,17.53
2023-02-14T09:42:02.110Z,17.27
2023-02-14T09:44:36.056Z,17.80
2023-02-14T09:47:13.352Z,19.00
2023-02-14T09:49:42.063Z,16.97
2023-02-14T09:52:16.565Z,17.13
2023-02-14T09:54:49.139Z,17.83
2023-02-14T09:57:26.235Z,16.67
2023-02-14T10:00:01.671Z,18.93
2023-02-14T10:02:43.386Z,17.97
2023-02-14T10:05:15.857Z,18.20
2023-02-14T10:08:01.190Z,16.57
2023-02-14T10:10:35.135Z,16.70
2023-02-14T10:13:08.615Z,16.50
2023-02-14T10:15:41.594Z,18.20
2023-02-14T10:18:15.702Z,16.53
2023-02-14T10:20:45.773Z,16.00
2023-02-14T10:23:26.088Z,16.67
2023-02-14T10:26:00.643Z,15.97
2023-02-14T10:28:33.816Z,17.13
2023-02-14T10:31:19.153Z,16.70
2023-02-14T10:33:55.627Z,17.03
2023-02-14T10:36:37.745Z,18.30
2023-02-14T10:39:18.462Z,18.27
2023-02-14T10:41:53.813Z,15.77
2023-02-14T10:44:41.407Z,16.27
2023-02-14T10:47:22.175Z,17.07
2023-02-14T10:49:58.961Z,17.52
2023-02-14T10:52:32.238Z,16.80
2023-02-14T10:55:02.786Z,17.20
2023-02-14T10:57:35.132Z,17.00
2023-02-14T11:00:06.635Z,16.47
2023-02-14T11:02:37.833Z,17.03
2023-02-14T11:05:08.622Z,15.50
2023-02-14T11:07:36.276Z,16.23
2023-02-14T11:10:04.053Z,14.60
2023-02-14T11:12:37.412Z,13.97
2023-02-14T11:15:24.092Z,14.00
2023-02-14T11:18:11.248Z,14.93
2023-02-14T11:20:40.772Z,14.33
2023-02-14T11:23:21.921Z,15.35
2023-02-14T11:25:53.634Z,14.27
2023-02-14T11:28:21.815Z,14.70
2023-02-14T11:30:51.581Z,13.83
2023-02-14T11:33:35.109Z,12.88
2023-02-14T11:36:10.780Z,12.52
2023-02-14T11:38:40.089Z,13.60
2023-02-14T11:41:11.160Z,13.73
2023-02-14T11:43:40.559Z,12.73
2023-02-14T11:46:15.431Z,14.80
2023-02-14T11:48:58.043Z,12.63
2023-02-14T11:51:34.619Z,14.07
2023-02-14T11:54:05.307Z,12.25
2023-02-14T11:56:49.462Z,13.53
2023-02-14T11:59:28.389Z,12.63
2023-02-14T12:01:58.956Z,12.30
2023-02-14T12:04:45.652Z,11.77
2023-02-14T12:07:21.436Z,12.48
2023-02-14T12:10:05.482Z,12.68
2023-02-14T12:12:33.302Z,13.63
2023-02-14T12:15:24.076Z,13.75
2023-02-14T12:17:58.022Z,14.07
2023-02-14T12:20:39.190Z,12.02
2023-02-14T12:23:17.025Z,13.23
2023-02-14T12:25:49.795Z,12.18
2023-02-14T12:28:23.199Z,13.20
2023-02-14T12:30:54.638Z,14.20
2023-02-14T12:33:26.092Z,13.55
2023-02-14T12:36:02.574Z,11.68
2023-02-14T12:38:42.303Z,12.45
2023-02-14T12:41:24.661Z,12.07
2023-02-14T12:43:55.346Z,11.30
2023-02-14T12:46:49.203Z,11.35
2023-02-14T12:49:36.436Z,11.18
2023-02-14T12:52:20.689Z,10.73
2023-02-14T12:55:01.779Z,11.40
2023-02-14T12:57:44.331Z,11.88
2023-02-14T13:00:22.201Z,12.07
2023-02-14T13:03:28.034Z,11.05
2023-02-14T13:06:02.998Z,11.75
2023-02-14T13:09:01.307Z,12.40
2023-02-14T13:11:37.668Z,11.77
2023-02-14T13:14:18.531Z,12.57
2023-02-14T13:16:52.269Z,11.88
2023-02-14T13:19:34.374Z,11.75
2023-02-14T13:22:02.501Z,11.35
2023-02-14T13:24:36.355Z,11.80
2023-02-14T13:27:10.779Z,10.60
2023-02-14T13:29:46.247Z,10.85
2023-02-14T13:32:18.072Z,11.88
2023-02-14T13:34:52.732Z,11.65
2023-02-14T13:37:27.383Z,12.05
2023-02-14T13:40:01.814Z,11.30
2023-02-14T13:42:57.013Z,9.88
2023-02-14T13:45:55.178Z,10.55
2023-02-14T13:48:27.576Z,10.75
2023-02-14T13:50:58.284Z,10.82
2023-02-14T13:53:32.717Z,10.90
2023-02-14T13:56:01.001Z,9.85
2023-02-14T13:58:30.909Z,10.50
2023-02-14T14:00:59.382Z,10.13
2023-02-14T14:03:57.129Z,10.80
2023-02-14T14:06:25.090Z,10.32
2023-02-14T14:08:56.118Z,9.80
2023-02-14T14:11:56.981Z,10.70
2023-02-14T14:14:36.434Z,9.93
2023-02-14T14:17:20.711Z,10.85
2023-02-14T14:19:48.759Z,9.45
2023-02-14T14:22:17.630Z,10.05
2023-02-14T14:25:00.694Z,9.32
2023-02-14T14:27:32.928Z,11.00
2023-02-14T14:30:04.091Z,10.65
2023-02-14T14:32:34.241Z,10.57
2023-02-14T14:35:03.812Z,9.73
2023-02-14T14:37:33.587Z,10.65
2023-02-14T14:40:03.671Z,9.82
2023-02-14T14:42:36.777Z,10.30
2023-02-14T14:45:10.395Z,9.82
2023-02-14T14:47:43.365Z,11.18
2023-02-14T14:50:17.307Z,11.70
2023-02-14T14:52:48.338Z,11.18
2023-02-14T14:55:20.605Z,13.50
2023-02-14T14:57:51.556Z,10.88
2023-02-14T15:00:27.404Z,9.70
2023-02-14T15:03:08.448Z,10.77
2023-02-14T15:05:38.510Z,10.10
2023-02-14T15:08:31.847Z,10.32
2023-02-14T15:11:03.599Z,9.85
2023-02-14T15:13:53.236Z,10.02
2023-02-14T15:16:29.224Z,9.65
2023-02-14T15:19:03.974Z,9.52
2023-02-14T15:21:32.366Z,9.80
2023-02-14T15:24:01.908Z,10.50
2023-02-14T15:26:32.444Z,9.50
2023-02-14T15:29:06.730Z,9.60
2023-02-14T15:31:40.258Z,9.23
2023-02-14T15:34:09.817Z,9.63
2023-02-14T15:36:37.780Z,9.25
2023-02-14T15:39:09.412Z,8.48
2023-02-14T15:41:37.419Z,9.60
2023-02-14T15:44:05.626Z,9.48
2023-02-14T15:46:38.798Z,10.02
2023-02-14T15:49:10.648Z,9.73
2023-02-14T15:51:39.579Z,9.25
2023-02-14T15:54:22.047Z,9.63
2023-02-14T15:56:52.696Z,10.27
2023-02-14T15:59:23.557Z,9.10
2023-02-14T16:01:55.796Z,9.07
2023-02-14T16:04:25.617Z,8.75
2023-02-14T16:07:17.383Z,9.18
2023-02-14T16:09:45.179Z,9.55
2023-02-14T16:12:27.385Z,9.77
2023-02-14T16:15:03.188Z,10.07
2023-02-14T16:17:36.755Z,9.90
2023-02-14T16:20:27.698Z,8.47
2023-02-14T16:23:17.523Z,10.00
2023-02-14T16:25:45.789Z,10.27
2023-02-14T16:28:14.763Z,9.63
2023-02-14T16:30:43.800Z,9.68
2023-02-14T16:33:18.366Z,9.52
2023-02-14T16:35:47.018Z,12.32
2023-02-14T16:38:16.756Z,10.23
2023-02-14T16:40:47.834Z,10.05
2023-02-14T16:43:17.407Z,10.47
2023-02-14T16:45:45.751Z,10.35
2023-02-14T16:48:16.397Z,9.63
2023-02-14T16:50:45.149Z,10.38
2023-02-14T16:53:25.865Z,9.60
2023-02-14T16:55:55.114Z,9.93
2023-02-14T16:58:25.404Z,10.67
2023-02-14T17:00:53.154Z,10.17
2023-02-14T17:03:22.448Z,10.57
2023-02-14T17:05:50.412Z,11.10
2023-02-14T17:08:18.966Z,11.10
2023-02-14T17:10:48.940Z,11.00
2023-02-14T17:13:20.213Z,11.30
2023-02-14T17:15:48.374Z,11.60
2023-02-14T17:18:18.734Z,11.17
2023-02-14T17:20:48.358Z,10.70
2023-02-14T17:23:16.429Z,10.47
2023-02-14T17:25:44.249Z,11.00
2023-02-14T17:28:12.076Z,10.30
2023-02-14T17:30:40.285Z,10.80
2023-02-14T17:33:08.261Z,10.60
2023-02-14T17:35:36.523Z,10.95
2023-02-14T17:38:06.087Z,11.50
2023-02-14T17:40:34.034Z,11.00
2023-02-14T17:43:01.853Z,10.87
2023-02-14T17:45:29.740Z,11.95
2023-02-14T17:47:57.758Z,10.93
2023-02-14T17:50:25.490Z,10.80
2023-02-14T17:52:55.492Z,10.57
2023-02-14T17:55:25.053Z,11.13
2023-02-14T17:57:52.846Z,10.68
2023-02-14T18:00:22.315Z,11.35
2023-02-14T18:02:50.321Z,10.63
2023-02-14T18:05:18.121Z,10.97
2023-02-14T18:07:45.960Z,13.57
2023-02-14T18:10:13.751Z,14.40
2023-02-14T18:12:43.369Z,14.57
2023-02-14T18:15:11.208Z,16.30
2023-02-14T18:17:38.984Z,16.17
2023-02-14T18:20:08.162Z,14.93
2023-02-14T18:22:36.759Z,14.70
2023-02-14T18:25:04.711Z,15.10
2023-02-14T18:27:33.113Z,15.10
2023-02-14T18:30:02.600Z,13.90
2023-02-14T18:32:30.489Z,13.80
2023-02-14T18:34:58.195Z,14.17
2023-02-14T18:37:25.922Z,13.43
2023-02-14T18:39:53.754Z,12.90
2023-02-14T18:42:21.737Z,13.23
2023-02-14T18:44:49.550Z,12.27
2023-02-14T18:47:18.687Z,13.05
2023-02-14T18:49:46.459Z,12.57
2023-02-14T18:52:14.211Z,13.35
2023-02-14T18:54:42.198Z,12.93
2023-02-14T18:57:09.957Z,13.40
2023-02-14T18:59:37.709Z,13.80
2023-02-14T19:02:05.767Z,14.13
2023-02-14T19:04:34.928Z,13.73
2023-02-14T19:07:04.404Z,13.87
2023-02-14T19:09:38.885Z,13.03
2023-02-14T19:12:07.570Z,14.23
2023-02-14T19:14:35.547Z,15.63
2023-02-14T19:17:04.405Z,14.70
2023-02-14T19:19:32.224Z,14.77
2023-02-14T19:22:01.871Z,13.37
2023-02-14T19:24:29.759Z,14.37
2023-02-14T19:26:57.854Z,15.17
2023-02-14T19:29:26.063Z,14.37
2023-02-14T19:31:55.809Z,16.10
2023-02-14T19:34:28.274Z,15.40
2023-02-14T19:36:59.102Z,16.73
2023-02-14T19:39:30.530Z,17.63
2023-02-14T19:41:58.987Z,16.20
2023-02-14T19:44:28.815Z,16.70
2023-02-14T19:46:59.812Z,15.67
2023-02-14T19:49:28.907Z,14.80
2023-02-14T19:51:57.924Z,15.37
2023-02-14T19:54:30.161Z,15.10
2023-02-14T19:57:00.803Z,16.00
2023-02-14T19:59:28.628Z,17.17
2023-02-14T20:01:58.263Z,16.67
2023-02-14T20:04:28.643Z,16.53
2023-02-14T20:06:56.844Z,18.23
2023-02-14T20:09:25.555Z,17.33
2023-02-14T20:11:56.352Z,18.00
2023-02-14T20:14:25.920Z,16.63
2023-02-14T20:16:55.334Z,17.93
2023-02-14T20:19:26.941Z,17.33
2023-02-14T20:21:55.370Z,18.43
2023-02-14T20:24:24.718Z,17.33
2023-02-14T20:26:54.570Z,19.03
2023-02-14T20:29:24.040Z,17.57
2023-02-14T20:31:53.689Z,17.83
2023-02-14T20:34:21.918Z,18.10
2023-02-14T20:36:53.148Z,17.30
2023-02-14T20:39:22.691Z,17.73
2023-02-14T20:41:50.928Z,17.07
2023-02-14T20:44:23.129Z,17.90
2023-02-14T20:46:53.448Z,15.68
2023-02-14T20:49:22.506Z,16.03
2023-02-14T20:51:51.603Z,17.00
2023-02-14T20:54:21.012Z,17.33
2023-02-14T20:56:50.581Z,16.67
2023-02-14T20:59:24.296Z,17.03
2023-02-14T21:01:52.137Z,18.90
2023-02-14T21:04:19.852Z,17.03
2023-02-14T21:06:48.979Z,18.00
2023-02-14T21:09:18.569Z,18.23
2023-02-14T21:11:49.132Z,18.17
2023-02-14T21:14:23.652Z,18.90
2023-02-14T21:16:51.437Z,19.70
2023-02-14T21:19:19.779Z,19.40
2023-02-14T21:21:47.625Z,19.23
2023-02-14T21:24:16.866Z,19.67
2023-02-14T21:26:44.961Z,19.50
2023-02-14T21:29:12.728Z,20.40
2023-02-14T21:31:42.354Z,20.03
2023-02-14T21:34:10.258Z,19.10
2023-02-14T21:36:38.150Z,20.40
2023-02-14T21:39:07.346Z,19.77
2023-02-14T21:41:36.892Z,20.02
2023-02-14T21:44:07.687Z,21.93
2023-02-14T21:46:57.944Z,19.07
2023-02-14T21:49:43.174Z,19.13
2023-02-14T21:52:13.746Z,20.63
2023-02-14T21:54:41.479Z,18.50
2023-02-14T21:57:17.078Z,19.03
2023-02-14T21:59:52.313Z,18.23
2023-02-14T22:02:24.104Z,17.37
2023-02-14T22:04:51.907Z,17.97
2023-02-14T22:07:19.821Z,17.57
2023-02-14T22:09:47.596Z,16.97
2023-02-14T22:12:15.362Z,17.00
2023-02-14T22:14:43.088Z,17.53
2023-02-14T22:17:10.889Z,17.90
2023-02-14T22:19:39.969Z,17.37
2023-02-14T22:22:08.069Z,18.23
2023-02-14T22:24:35.861Z,17.73
2023-02-14T22:27:03.572Z,17.30
2023-02-14T22:29:31.297Z,17.27
2023-02-14T22:31:59.177Z,17.93
2023-02-14T22:34:27.054Z,18.70
2023-02-14T22:36:56.109Z,17.67
2023-02-14T22:39:24.075Z,16.50
2023-02-14T22:41:51.771Z,17.67
2023-02-14T22:44:19.779Z,17.07
2023-02-14T22:46:47.681Z,18.60
2023-02-14T22:49:15.510Z,19.30
2023-02-14T22:51:43.582Z,18.13
2023-02-14T22:54:14.897Z,18.60
2023-02-14T22:56:44.718Z,18.70
2023-02-14T22:59:17.058Z,18.93
2023-02-14T23:01:45.231Z,21.63
2023-02-14T23:04:13.987Z,20.63
2023-02-14T23:06:44.003Z,19.93
2023-02-14T23:09:17.356Z,19.57
2023-02-14T23:11:48.069Z,19.57
2023-02-14T23:14:35.169Z,19.90
2023-02-14T23:17:20.883Z,20.87
2023-02-14T23:20:06.695Z,19.73
2023-02-14T23:22:36.227Z,20.23
2023-02-14T23:25:08.112Z,18.83
2023-02-14T23:27:37.928Z,19.33
2023-02-14T23:30:07.921Z,18.47
2023-02-14T23:32:40.239Z,19.40
2023-02-14T23:35:08.585Z,20.13
2023-02-14T23:37:36.358Z,19.20
2023-02-14T23:40:06.735Z,19.93
2023-02-14T23:42:34.733Z,19.60
2023-02-14T23:45:16.463Z,20.33
2023-02-14T23:47:44.206Z,20.20
2023-02-14T23:50:12.148Z,20.40
2023-02-14T23:52:41.664Z,20.37
2023-02-14T23:55:11.179Z,21.17
2023-02-14T23:57:39.371Z,21.33
